sensor_id;sensor_type;location;lat;lon;timestamp;P1;durP1;ratioP1;P2;durP2;ratioP2
56399;SDS011;42298;53.638;9.876;2022-08-19T00:01:07;20.58;;;16.10;;
56399;SDS011;42298;53.638;9.876;2022-08-19T00:03:32;23.02;;;18.13;;
56399;SDS011;42298;53.638;9.876;2022-08-19T00:05:59;20.35;;;15.63;;
56399;SDS011;42298;53.638;9.876;2022-08-19T00:08:24;26.45;;;16.90;;
56399;SDS011;42298;53.638;9.876;2022-08-19T00:10:49;23.85;;;17.85;;
56399;SDS011;42298;53.638;9.876;2022-08-19T00:13:14;25.20;;;18.67;;
56399;SDS011;42298;53.638;9.876;2022-08-19T00:15:40;23.92;;;18.52;;
56399;SDS011;42298;53.638;9.876;2022-08-19T00:18:08;25.58;;;20.17;;
56399;SDS011;42298;53.638;9.876;2022-08-19T00:20:33;24.73;;;18.20;;
56399;SDS011;42298;53.638;9.876;2022-08-19T00:22:58;26.40;;;20.40;;
56399;SDS011;42298;53.638;9.876;2022-08-19T00:25:24;26.27;;;19.38;;
56399;SDS011;42298;53.638;9.876;2022-08-19T00:27:49;26.33;;;19.38;;
56399;SDS011;42298;53.638;9.876;2022-08-19T00:30:14;22.60;;;17.73;;
56399;SDS011;42298;53.638;9.876;2022-08-19T00:32:40;23.92;;;18.63;;
56399;SDS011;42298;53.638;9.876;2022-08-19T00:35:05;25.50;;;19.30;;
56399;SDS011;42298;53.638;9.876;2022-08-19T00:37:31;24.45;;;18.55;;
56399;SDS011;42298;53.638;9.876;2022-08-19T00:39:57;23.02;;;17.88;;
56399;SDS011;42298;53.638;9.876;2022-08-19T00:42:23;22.17;;;17.05;;
56399;SDS011;42298;53.638;9.876;2022-08-19T00:44:48;23.10;;;17.50;;
56399;SDS011;42298;53.638;9.876;2022-08-19T00:47:15;25.90;;;17.38;;
56399;SDS011;42298;53.638;9.876;2022-08-19T00:49:41;21.70;;;15.35;;
56399;SDS011;42298;53.638;9.876;2022-08-19T00:52:16;19.65;;;13.35;;
56399;SDS011;42298;53.638;9.876;2022-08-19T00:54:45;19.65;;;14.82;;
56399;SDS011;42298;53.638;9.876;2022-08-19T00:57:14;20.35;;;15.85;;
56399;SDS011;42298;53.638;9.876;2022-08-19T00:59:42;22.05;;;15.35;;
56399;SDS011;42298;53.638;9.876;2022-08-19T01:02:10;21.77;;;14.95;;
56399;SDS011;42298;53.638;9.876;2022-08-19T01:04:36;19.55;;;14.18;;
56399;SDS011;42298;53.638;9.876;2022-08-19T01:07:01;17.83;;;13.73;;
56399;SDS011;42298;53.638;9.876;2022-08-19T01:09:27;21.98;;;14.55;;
56399;SDS011;42298;53.638;9.876;2022-08-19T01:11:53;25.05;;;16.45;;
56399;SDS011;42298;53.638;9.876;2022-08-19T01:14:20;20.45;;;13.90;;
56399;SDS011;42298;53.638;9.876;2022-08-19T01:16:45;19.08;;;13.80;;
56399;SDS011;42298;53.638;9.876;2022-08-19T01:24:43;25.08;;;16.17;;
56399;SDS011;42298;53.638;9.876;2022-08-19T01:27:09;19.17;;;14.90;;
56399;SDS011;42298;53.638;9.876;2022-08-19T01:29:34;27.83;;;18.42;;
56399;SDS011;42298;53.638;9.876;2022-08-19T01:32:04;24.98;;;17.10;;
56399;SDS011;42298;53.638;9.876;2022-08-19T01:34:30;26.77;;;18.23;;
56399;SDS011;42298;53.638;9.876;2022-08-19T01:36:55;25.25;;;17.52;;
56399;SDS011;42298;53.638;9.876;2022-08-19T01:39:23;25.65;;;18.15;;
56399;SDS011;42298;53.638;9.876;2022-08-19T01:41:49;30.10;;;18.48;;
56399;SDS011;42298;53.638;9.876;2022-08-19T01:44:17;25.70;;;17.63;;
56399;SDS011;42298;53.638;9.876;2022-08-19T01:46:45;27.85;;;17.67;;
56399;SDS011;42298;53.638;9.876;2022-08-19T01:49:12;26.67;;;18.25;;
56399;SDS011;42298;53.638;9.876;2022-08-19T01:51:37;32.00;;;18.77;;
56399;SDS011;42298;53.638;9.876;2022-08-19T01:54:03;26.27;;;18.48;;
56399;SDS011;42298;53.638;9.876;2022-08-19T01:56:28;25.70;;;17.85;;
56399;SDS011;42298;53.638;9.876;2022-08-19T01:58:58;30.58;;;18.88;;
56399;SDS011;42298;53.638;9.876;2022-08-19T02:01:26;26.15;;;16.27;;
56399;SDS011;42298;53.638;9.876;2022-08-19T02:03:53;32.00;;;20.02;;
56399;SDS011;42298;53.638;9.876;2022-08-19T02:06:19;33.70;;;20.42;;
56399;SDS011;42298;53.638;9.876;2022-08-19T02:08:45;32.47;;;21.88;;
56399;SDS011;42298;53.638;9.876;2022-08-19T02:11:17;33.08;;;21.23;;
56399;SDS011;42298;53.638;9.876;2022-08-19T02:13:45;34.55;;;22.20;;
56399;SDS011;42298;53.638;9.876;2022-08-19T02:16:10;31.60;;;18.50;;
56399;SDS011;42298;53.638;9.876;2022-08-19T02:18:36;28.55;;;18.48;;
56399;SDS011;42298;53.638;9.876;2022-08-19T02:21:01;33.75;;;22.38;;
56399;SDS011;42298;53.638;9.876;2022-08-19T02:23:28;33.75;;;19.08;;
56399;SDS011;42298;53.638;9.876;2022-08-19T02:25:53;35.53;;;22.27;;
56399;SDS011;42298;53.638;9.876;2022-08-19T02:28:18;35.88;;;21.40;;
56399;SDS011;42298;53.638;9.876;2022-08-19T02:30:44;37.58;;;23.33;;
56399;SDS011;42298;53.638;9.876;2022-08-19T02:33:10;38.78;;;22.92;;
56399;SDS011;42298;53.638;9.876;2022-08-19T02:35:35;36.40;;;20.23;;
56399;SDS011;42298;53.638;9.876;2022-08-19T02:38:00;37.75;;;23.63;;
56399;SDS011;42298;53.638;9.876;2022-08-19T02:40:48;39.55;;;23.15;;
56399;SDS011;42298;53.638;9.876;2022-08-19T02:43:16;40.50;;;23.33;;
56399;SDS011;42298;53.638;9.876;2022-08-19T02:45:42;40.53;;;23.15;;
56399;SDS011;42298;53.638;9.876;2022-08-19T02:48:07;43.55;;;22.70;;
56399;SDS011;42298;53.638;9.876;2022-08-19T02:50:33;38.17;;;22.10;;
56399;SDS011;42298;53.638;9.876;2022-08-19T02:53:02;43.20;;;23.35;;
56399;SDS011;42298;53.638;9.876;2022-08-19T02:55:28;34.30;;;22.02;;
56399;SDS011;42298;53.638;9.876;2022-08-19T02:57:53;35.40;;;21.63;;
56399;SDS011;42298;53.638;9.876;2022-08-19T03:00:19;35.25;;;19.85;;
56399;SDS011;42298;53.638;9.876;2022-08-19T03:02:45;36.40;;;20.33;;
56399;SDS011;42298;53.638;9.876;2022-08-19T03:05:11;36.97;;;21.40;;
56399;SDS011;42298;53.638;9.876;2022-08-19T03:07:39;36.03;;;19.40;;
56399;SDS011;42298;53.638;9.876;2022-08-19T03:10:04;33.33;;;18.02;;
56399;SDS011;42298;53.638;9.876;2022-08-19T03:12:30;29.23;;;17.58;;
56399;SDS011;42298;53.638;9.876;2022-08-19T03:14:56;38.38;;;20.42;;
56399;SDS011;42298;53.638;9.876;2022-08-19T03:17:21;28.60;;;17.05;;
56399;SDS011;42298;53.638;9.876;2022-08-19T03:19:46;32.58;;;20.20;;
56399;SDS011;42298;53.638;9.876;2022-08-19T03:22:12;32.47;;;18.30;;
56399;SDS011;42298;53.638;9.876;2022-08-19T03:24:37;30.42;;;18.48;;
56399;SDS011;42298;53.638;9.876;2022-08-19T03:27:03;33.60;;;19.00;;
56399;SDS011;42298;53.638;9.876;2022-08-19T03:29:30;29.33;;;16.88;;
56399;SDS011;42298;53.638;9.876;2022-08-19T03:31:57;35.03;;;21.02;;
56399;SDS011;42298;53.638;9.876;2022-08-19T03:34:25;30.38;;;18.25;;
56399;SDS011;42298;53.638;9.876;2022-08-19T03:36:52;29.23;;;16.15;;
56399;SDS011;42298;53.638;9.876;2022-08-19T03:39:20;29.38;;;17.48;;
56399;SDS011;42298;53.638;9.876;2022-08-19T03:41:46;34.45;;;20.77;;
56399;SDS011;42298;53.638;9.876;2022-08-19T03:44:15;30.27;;;17.70;;
56399;SDS011;42298;53.638;9.876;2022-08-19T03:46:48;22.58;;;14.35;;
56399;SDS011;42298;53.638;9.876;2022-08-19T03:49:15;29.10;;;17.25;;
56399;SDS011;42298;53.638;9.876;2022-08-19T03:51:42;28.98;;;17.48;;
56399;SDS011;42298;53.638;9.876;2022-08-19T03:54:09;33.47;;;17.92;;
56399;SDS011;42298;53.638;9.876;2022-08-19T03:56:38;36.42;;;18.65;;
56399;SDS011;42298;53.638;9.876;2022-08-19T03:59:06;34.35;;;19.05;;
56399;SDS011;42298;53.638;9.876;2022-08-19T04:01:34;36.67;;;21.45;;
56399;SDS011;42298;53.638;9.876;2022-08-19T04:04:00;33.80;;;20.90;;
56399;SDS011;42298;53.638;9.876;2022-08-19T04:06:27;44.28;;;24.10;;
56399;SDS011;42298;53.638;9.876;2022-08-19T04:08:55;36.15;;;23.20;;
56399;SDS011;42298;53.638;9.876;2022-08-19T04:11:22;45.83;;;25.90;;
56399;SDS011;42298;53.638;9.876;2022-08-19T04:13:50;46.67;;;27.05;;
56399;SDS011;42298;53.638;9.876;2022-08-19T04:16:18;46.10;;;28.13;;
56399;SDS011;42298;53.638;9.876;2022-08-19T04:18:45;45.35;;;28.25;;
56399;SDS011;42298;53.638;9.876;2022-08-19T04:21:15;38.58;;;24.30;;
56399;SDS011;42298;53.638;9.876;2022-08-19T04:23:42;40.08;;;23.20;;
56399;SDS011;42298;53.638;9.876;2022-08-19T04:26:11;34.95;;;22.75;;
56399;SDS011;42298;53.638;9.876;2022-08-19T04:28:41;31.17;;;20.27;;
56399;SDS011;42298;53.638;9.876;2022-08-19T04:31:13;31.17;;;20.92;;
56399;SDS011;42298;53.638;9.876;2022-08-19T04:33:53;31.60;;;21.10;;
56399;SDS011;42298;53.638;9.876;2022-08-19T04:36:24;33.10;;;21.90;;
56399;SDS011;42298;53.638;9.876;2022-08-19T04:38:53;28.02;;;18.70;;
56399;SDS011;42298;53.638;9.876;2022-08-19T04:41:20;33.42;;;20.27;;
56399;SDS011;42298;53.638;9.876;2022-08-19T04:44:04;30.38;;;19.73;;
56399;SDS011;42298;53.638;9.876;2022-08-19T04:46:30;39.88;;;22.90;;
56399;SDS011;42298;53.638;9.876;2022-08-19T04:48:56;31.48;;;21.02;;
56399;SDS011;42298;53.638;9.876;2022-08-19T04:51:23;29.50;;;19.52;;
56399;SDS011;42298;53.638;9.876;2022-08-19T04:53:48;25.67;;;17.90;;
56399;SDS011;42298;53.638;9.876;2022-08-19T04:56:15;29.65;;;19.38;;
56399;SDS011;42298;53.638;9.876;2022-08-19T04:58:43;31.35;;;20.65;;
56399;SDS011;42298;53.638;9.876;2022-08-19T05:01:20;29.30;;;18.48;;
56399;SDS011;42298;53.638;9.876;2022-08-19T05:03:48;26.90;;;17.35;;
56399;SDS011;42298;53.638;9.876;2022-08-19T05:06:14;33.35;;;21.75;;
56399;SDS011;42298;53.638;9.876;2022-08-19T05:08:42;25.70;;;18.85;;
56399;SDS011;42298;53.638;9.876;2022-08-19T05:11:10;25.70;;;18.35;;
56399;SDS011;42298;53.638;9.876;2022-08-19T05:13:42;33.15;;;22.13;;
56399;SDS011;42298;53.638;9.876;2022-08-19T05:16:09;33.30;;;21.65;;
56399;SDS011;42298;53.638;9.876;2022-08-19T05:18:37;28.02;;;18.27;;
56399;SDS011;42298;53.638;9.876;2022-08-19T05:21:22;30.08;;;22.13;;
56399;SDS011;42298;53.638;9.876;2022-08-19T05:24:07;31.17;;;21.02;;
56399;SDS011;42298;53.638;9.876;2022-08-19T05:26:39;27.00;;;19.13;;
56399;SDS011;42298;53.638;9.876;2022-08-19T05:29:07;31.52;;;19.33;;
56399;SDS011;42298;53.638;9.876;2022-08-19T05:31:33;25.08;;;18.58;;
56399;SDS011;42298;53.638;9.876;2022-08-19T05:34:00;22.90;;;16.42;;
56399;SDS011;42298;53.638;9.876;2022-08-19T05:36:26;25.00;;;16.75;;
56399;SDS011;42298;53.638;9.876;2022-08-19T05:38:53;27.50;;;17.33;;
56399;SDS011;42298;53.638;9.876;2022-08-19T05:41:19;24.77;;;18.25;;
56399;SDS011;42298;53.638;9.876;2022-08-19T05:43:46;25.40;;;18.02;;
56399;SDS011;42298;53.638;9.876;2022-08-19T05:46:18;25.13;;;17.20;;
56399;SDS011;42298;53.638;9.876;2022-08-19T05:48:44;21.65;;;14.93;;
56399;SDS011;42298;53.638;9.876;2022-08-19T05:51:10;23.45;;;17.13;;
56399;SDS011;42298;53.638;9.876;2022-08-19T05:53:36;21.48;;;14.75;;
56399;SDS011;42298;53.638;9.876;2022-08-19T05:56:12;22.05;;;14.32;;
56399;SDS011;42298;53.638;9.876;2022-08-19T05:58:40;24.60;;;16.42;;
56399;SDS011;42298;53.638;9.876;2022-08-19T06:01:10;25.98;;;18.27;;
56399;SDS011;42298;53.638;9.876;2022-08-19T06:03:41;25.15;;;17.92;;
56399;SDS011;42298;53.638;9.876;2022-08-19T06:06:07;22.30;;;17.15;;
56399;SDS011;42298;53.638;9.876;2022-08-19T06:08:34;22.85;;;15.57;;
56399;SDS011;42298;53.638;9.876;2022-08-19T06:11:18;29.25;;;20.63;;
56399;SDS011;42298;53.638;9.876;2022-08-19T06:13:47;25.95;;;18.50;;
56399;SDS011;42298;53.638;9.876;2022-08-19T06:16:15;28.60;;;18.23;;
56399;SDS011;42298;53.638;9.876;2022-08-19T06:18:50;25.50;;;18.17;;
56399;SDS011;42298;53.638;9.876;2022-08-19T06:21:17;33.53;;;18.05;;
56399;SDS011;42298;53.638;9.876;2022-08-19T06:23:44;25.30;;;16.35;;
56399;SDS011;42298;53.638;9.876;2022-08-19T06:26:13;26.80;;;19.95;;
56399;SDS011;42298;53.638;9.876;2022-08-19T06:28:40;26.92;;;18.35;;
56399;SDS011;42298;53.638;9.876;2022-08-19T06:31:12;27.52;;;20.38;;
56399;SDS011;42298;53.638;9.876;2022-08-19T06:33:42;25.98;;;17.02;;
56399;SDS011;42298;53.638;9.876;2022-08-19T06:36:15;28.30;;;18.10;;
56399;SDS011;42298;53.638;9.876;2022-08-19T06:39:18;29.83;;;19.83;;
56399;SDS011;42298;53.638;9.876;2022-08-19T06:41:45;23.77;;;17.95;;
56399;SDS011;42298;53.638;9.876;2022-08-19T06:44:12;25.13;;;18.80;;
56399;SDS011;42298;53.638;9.876;2022-08-19T06:46:38;25.70;;;18.88;;
56399;SDS011;42298;53.638;9.876;2022-08-19T06:49:05;23.25;;;16.00;;
56399;SDS011;42298;53.638;9.876;2022-08-19T06:51:31;23.30;;;17.52;;
56399;SDS011;42298;53.638;9.876;2022-08-19T06:53:57;24.45;;;17.10;;
56399;SDS011;42298;53.638;9.876;2022-08-19T06:56:25;21.38;;;16.20;;
56399;SDS011;42298;53.638;9.876;2022-08-19T06:59:05;21.60;;;15.88;;
56399;SDS011;42298;53.638;9.876;2022-08-19T07:01:36;21.13;;;15.15;;
56399;SDS011;42298;53.638;9.876;2022-08-19T07:04:04;20.83;;;14.38;;
56399;SDS011;42298;53.638;9.876;2022-08-19T07:06:30;20.70;;;14.77;;
56399;SDS011;42298;53.638;9.876;2022-08-19T07:08:56;17.42;;;12.52;;
56399;SDS011;42298;53.638;9.876;2022-08-19T07:11:22;18.23;;;13.13;;
56399;SDS011;42298;53.638;9.876;2022-08-19T07:13:50;15.23;;;9.45;;
56399;SDS011;42298;53.638;9.876;2022-08-19T07:16:17;18.85;;;11.57;;
56399;SDS011;42298;53.638;9.876;2022-08-19T07:18:47;15.07;;;10.88;;
56399;SDS011;42298;53.638;9.876;2022-08-19T07:21:20;17.65;;;12.63;;
56399;SDS011;42298;53.638;9.876;2022-08-19T07:23:49;18.13;;;12.75;;
56399;SDS011;42298;53.638;9.876;2022-08-19T07:26:20;18.38;;;12.40;;
56399;SDS011;42298;53.638;9.876;2022-08-19T07:28:49;17.77;;;12.00;;
56399;SDS011;42298;53.638;9.876;2022-08-19T07:31:21;18.75;;;13.18;;
56399;SDS011;42298;53.638;9.876;2022-08-19T07:33:49;16.48;;;10.57;;
56399;SDS011;42298;53.638;9.876;2022-08-19T07:36:16;16.95;;;11.77;;
56399;SDS011;42298;53.638;9.876;2022-08-19T07:38:46;16.23;;;10.27;;
56399;SDS011;42298;53.638;9.876;2022-08-19T07:41:14;16.38;;;10.80;;
56399;SDS011;42298;53.638;9.876;2022-08-19T07:43:43;14.65;;;9.43;;
56399;SDS011;42298;53.638;9.876;2022-08-19T07:46:08;13.90;;;8.85;;
56399;SDS011;42298;53.638;9.876;2022-08-19T07:48:34;15.70;;;10.73;;
56399;SDS011;42298;53.638;9.876;2022-08-19T07:51:02;16.27;;;12.13;;
56399;SDS011;42298;53.638;9.876;2022-08-19T07:53:29;15.70;;;10.27;;
56399;SDS011;42298;53.638;9.876;2022-08-19T07:55:56;16.20;;;10.30;;
56399;SDS011;42298;53.638;9.876;2022-08-19T07:58:28;17.30;;;10.45;;
56399;SDS011;42298;53.638;9.876;2022-08-19T08:00:54;16.20;;;10.50;;
56399;SDS011;42298;53.638;9.876;2022-08-19T08:03:20;18.35;;;12.00;;
56399;SDS011;42298;53.638;9.876;2022-08-19T08:06:06;16.50;;;11.40;;
56399;SDS011;42298;53.638;9.876;2022-08-19T08:08:50;18.15;;;11.05;;
56399;SDS011;42298;53.638;9.876;2022-08-19T08:11:34;17.60;;;12.63;;
56399;SDS011;42298;53.638;9.876;2022-08-19T08:14:00;19.63;;;12.40;;
56399;SDS011;42298;53.638;9.876;2022-08-19T08:16:26;16.58;;;11.20;;
56399;SDS011;42298;53.638;9.876;2022-08-19T08:18:54;15.57;;;10.32;;
56399;SDS011;42298;53.638;9.876;2022-08-19T08:21:20;13.75;;;9.07;;
56399;SDS011;42298;53.638;9.876;2022-08-19T08:23:45;14.80;;;8.55;;
56399;SDS011;42298;53.638;9.876;2022-08-19T08:26:11;14.15;;;8.52;;
56399;SDS011;42298;53.638;9.876;2022-08-19T08:28:37;16.48;;;9.35;;
56399;SDS011;42298;53.638;9.876;2022-08-19T08:31:03;12.95;;;8.05;;
56399;SDS011;42298;53.638;9.876;2022-08-19T08:33:29;16.10;;;9.13;;
56399;SDS011;42298;53.638;9.876;2022-08-19T08:35:55;15.95;;;10.00;;
56399;SDS011;42298;53.638;9.876;2022-08-19T08:38:21;17.65;;;10.50;;
56399;SDS011;42298;53.638;9.876;2022-08-19T08:40:47;17.95;;;10.07;;
56399;SDS011;42298;53.638;9.876;2022-08-19T08:43:28;19.95;;;10.88;;
56399;SDS011;42298;53.638;9.876;2022-08-19T08:46:03;17.33;;;11.60;;
56399;SDS011;42298;53.638;9.876;2022-08-19T08:51:34;15.18;;;10.07;;
56399;SDS011;42298;53.638;9.876;2022-08-19T08:54:06;17.20;;;10.50;;
56399;SDS011;42298;53.638;9.876;2022-08-19T08:56:33;18.88;;;9.45;;
56399;SDS011;42298;53.638;9.876;2022-08-19T08:59:03;15.68;;;10.32;;
56399;SDS011;42298;53.638;9.876;2022-08-19T09:01:42;18.67;;;10.75;;
56399;SDS011;42298;53.638;9.876;2022-08-19T09:04:08;14.23;;;9.30;;
56399;SDS011;42298;53.638;9.876;2022-08-19T09:09:33;17.75;;;9.73;;
56399;SDS011;42298;53.638;9.876;2022-08-19T09:12:20;13.93;;;9.15;;
56399;SDS011;42298;53.638;9.876;2022-08-19T09:14:55;12.93;;;8.77;;
56399;SDS011;42298;53.638;9.876;2022-08-19T09:17:26;16.00;;;10.65;;
56399;SDS011;42298;53.638;9.876;2022-08-19T09:22:29;16.40;;;9.40;;
56399;SDS011;42298;53.638;9.876;2022-08-19T09:24:55;15.40;;;9.27;;
56399;SDS011;42298;53.638;9.876;2022-08-19T09:27:22;15.70;;;8.80;;
56399;SDS011;42298;53.638;9.876;2022-08-19T09:29:51;15.13;;;10.18;;
56399;SDS011;42298;53.638;9.876;2022-08-19T09:32:18;18.25;;;11.60;;
56399;SDS011;42298;53.638;9.876;2022-08-19T09:34:45;18.38;;;11.27;;
56399;SDS011;42298;53.638;9.876;2022-08-19T09:37:10;17.52;;;11.45;;
56399;SDS011;42298;53.638;9.876;2022-08-19T09:39:35;18.30;;;11.63;;
56399;SDS011;42298;53.638;9.876;2022-08-19T09:42:02;18.05;;;12.35;;
56399;SDS011;42298;53.638;9.876;2022-08-19T09:44:28;17.35;;;11.85;;
56399;SDS011;42298;53.638;9.876;2022-08-19T09:46:54;19.15;;;12.73;;
56399;SDS011;42298;53.638;9.876;2022-08-19T09:49:19;17.73;;;12.15;;
56399;SDS011;42298;53.638;9.876;2022-08-19T09:51:49;17.33;;;11.65;;
56399;SDS011;42298;53.638;9.876;2022-08-19T09:54:15;21.58;;;13.35;;
56399;SDS011;42298;53.638;9.876;2022-08-19T09:56:40;18.83;;;14.30;;
56399;SDS011;42298;53.638;9.876;2022-08-19T09:59:06;20.35;;;13.48;;
56399;SDS011;42298;53.638;9.876;2022-08-19T10:01:31;20.45;;;14.15;;
56399;SDS011;42298;53.638;9.876;2022-08-19T10:03:58;20.95;;;14.27;;
56399;SDS011;42298;53.638;9.876;2022-08-19T10:06:26;20.13;;;15.25;;
56399;SDS011;42298;53.638;9.876;2022-08-19T10:08:55;20.45;;;15.43;;
56399;SDS011;42298;53.638;9.876;2022-08-19T10:11:21;16.75;;;13.15;;
56399;SDS011;42298;53.638;9.876;2022-08-19T10:13:47;22.38;;;14.88;;
56399;SDS011;42298;53.638;9.876;2022-08-19T10:16:15;21.88;;;14.65;;
56399;SDS011;42298;53.638;9.876;2022-08-19T10:18:43;19.83;;;14.48;;
56399;SDS011;42298;53.638;9.876;2022-08-19T10:21:23;20.50;;;14.02;;
56399;SDS011;42298;53.638;9.876;2022-08-19T10:23:50;20.42;;;14.60;;
56399;SDS011;42298;53.638;9.876;2022-08-19T10:26:21;20.08;;;15.30;;
56399;SDS011;42298;53.638;9.876;2022-08-19T10:29:00;21.73;;;14.90;;
56399;SDS011;42298;53.638;9.876;2022-08-19T10:31:27;23.48;;;15.35;;
56399;SDS011;42298;53.638;9.876;2022-08-19T10:33:55;22.00;;;15.05;;
56399;SDS011;42298;53.638;9.876;2022-08-19T10:36:42;21.40;;;14.05;;
56399;SDS011;42298;53.638;9.876;2022-08-19T10:39:09;23.08;;;14.52;;
56399;SDS011;42298;53.638;9.876;2022-08-19T10:41:36;20.02;;;13.63;;
56399;SDS011;42298;53.638;9.876;2022-08-19T10:44:04;22.23;;;13.60;;
56399;SDS011;42298;53.638;9.876;2022-08-19T10:46:32;21.52;;;14.20;;
56399;SDS011;42298;53.638;9.876;2022-08-19T10:49:00;22.08;;;14.88;;
56399;SDS011;42298;53.638;9.876;2022-08-19T10:51:26;21.30;;;15.85;;
56399;SDS011;42298;53.638;9.876;2022-08-19T10:54:11;21.58;;;14.20;;
56399;SDS011;42298;53.638;9.876;2022-08-19T10:56:36;18.92;;;13.75;;
56399;SDS011;42298;53.638;9.876;2022-08-19T10:59:19;20.33;;;13.27;;
56399;SDS011;42298;53.638;9.876;2022-08-19T11:01:50;18.40;;;13.05;;
56399;SDS011;42298;53.638;9.876;2022-08-19T11:04:17;16.67;;;12.45;;
56399;SDS011;42298;53.638;9.876;2022-08-19T11:06:44;16.48;;;10.93;;
56399;SDS011;42298;53.638;9.876;2022-08-19T11:09:16;17.42;;;11.95;;
56399;SDS011;42298;53.638;9.876;2022-08-19T11:11:48;18.25;;;13.73;;
56399;SDS011;42298;53.638;9.876;2022-08-19T11:14:15;16.80;;;11.45;;
56399;SDS011;42298;53.638;9.876;2022-08-19T11:16:43;15.63;;;10.65;;
56399;SDS011;42298;53.638;9.876;2022-08-19T11:19:09;15.25;;;10.35;;
56399;SDS011;42298;53.638;9.876;2022-08-19T11:21:38;20.52;;;12.82;;
56399;SDS011;42298;53.638;9.876;2022-08-19T11:24:06;15.65;;;10.88;;
56399;SDS011;42298;53.638;9.876;2022-08-19T11:26:33;19.92;;;11.15;;
56399;SDS011;42298;53.638;9.876;2022-08-19T11:29:00;16.23;;;10.52;;
56399;SDS011;42298;53.638;9.876;2022-08-19T11:31:30;19.20;;;12.30;;
56399;SDS011;42298;53.638;9.876;2022-08-19T11:33:58;16.52;;;11.75;;
56399;SDS011;42298;53.638;9.876;2022-08-19T11:36:25;17.27;;;11.18;;
56399;SDS011;42298;53.638;9.876;2022-08-19T11:38:51;16.88;;;11.32;;
56399;SDS011;42298;53.638;9.876;2022-08-19T11:41:18;16.85;;;12.32;;
56399;SDS011;42298;53.638;9.876;2022-08-19T11:43:45;17.90;;;11.10;;
56399;SDS011;42298;53.638;9.876;2022-08-19T11:46:13;15.57;;;10.10;;
56399;SDS011;42298;53.638;9.876;2022-08-19T11:48:40;16.92;;;10.88;;
56399;SDS011;42298;53.638;9.876;2022-08-19T11:51:07;17.48;;;11.75;;
56399;SDS011;42298;53.638;9.876;2022-08-19T11:53:37;14.93;;;10.88;;
56399;SDS011;42298;53.638;9.876;2022-08-19T11:56:03;17.73;;;12.20;;
56399;SDS011;42298;53.638;9.876;2022-08-19T11:58:29;17.02;;;10.85;;
56399;SDS011;42298;53.638;9.876;2022-08-19T12:00:55;13.70;;;8.88;;
56399;SDS011;42298;53.638;9.876;2022-08-19T12:03:21;14.15;;;9.65;;
56399;SDS011;42298;53.638;9.876;2022-08-19T12:05:47;12.95;;;9.20;;
56399;SDS011;42298;53.638;9.876;2022-08-19T12:08:12;13.80;;;9.05;;
56399;SDS011;42298;53.638;9.876;2022-08-19T12:10:39;14.93;;;10.20;;
56399;SDS011;42298;53.638;9.876;2022-08-19T12:13:06;15.90;;;11.00;;
56399;SDS011;42298;53.638;9.876;2022-08-19T12:15:35;14.52;;;9.57;;
56399;SDS011;42298;53.638;9.876;2022-08-19T12:18:05;14.52;;;8.77;;
56399;SDS011;42298;53.638;9.876;2022-08-19T12:20:30;14.48;;;10.55;;
56399;SDS011;42298;53.638;9.876;2022-08-19T12:22:56;13.05;;;8.85;;
56399;SDS011;42298;53.638;9.876;2022-08-19T12:25:21;14.63;;;10.95;;
56399;SDS011;42298;53.638;9.876;2022-08-19T12:27:47;15.05;;;10.40;;
56399;SDS011;42298;53.638;9.876;2022-08-19T12:30:12;16.02;;;10.55;;
56399;SDS011;42298;53.638;9.876;2022-08-19T12:32:38;13.60;;;9.65;;
56399;SDS011;42298;53.638;9.876;2022-08-19T12:35:04;13.23;;;9.20;;
56399;SDS011;42298;53.638;9.876;2022-08-19T12:37:30;13.90;;;9.15;;
56399;SDS011;42298;53.638;9.876;2022-08-19T12:39:57;13.90;;;9.18;;
56399;SDS011;42298;53.638;9.876;2022-08-19T12:42:22;13.55;;;9.75;;
56399;SDS011;42298;53.638;9.876;2022-08-19T12:44:47;15.25;;;9.73;;
56399;SDS011;42298;53.638;9.876;2022-08-19T12:47:13;13.85;;;9.07;;
56399;SDS011;42298;53.638;9.876;2022-08-19T12:49:42;14.98;;;10.23;;
56399;SDS011;42298;53.638;9.876;2022-08-19T12:52:09;15.05;;;10.07;;
56399;SDS011;42298;53.638;9.876;2022-08-19T12:54:35;14.00;;;11.00;;
56399;SDS011;42298;53.638;9.876;2022-08-19T12:57:07;13.57;;;10.35;;
56399;SDS011;42298;53.638;9.876;2022-08-19T12:59:33;13.88;;;10.07;;
56399;SDS011;42298;53.638;9.876;2022-08-19T13:01:59;14.57;;;10.40;;
56399;SDS011;42298;53.638;9.876;2022-08-19T13:04:25;16.38;;;12.57;;
56399;SDS011;42298;53.638;9.876;2022-08-19T13:06:50;16.02;;;10.70;;
56399;SDS011;42298;53.638;9.876;2022-08-19T13:09:16;13.00;;;9.40;;
56399;SDS011;42298;53.638;9.876;2022-08-19T13:11:41;13.77;;;10.20;;
56399;SDS011;42298;53.638;9.876;2022-08-19T13:14:09;14.23;;;10.00;;
56399;SDS011;42298;53.638;9.876;2022-08-19T13:16:36;13.35;;;9.50;;
56399;SDS011;42298;53.638;9.876;2022-08-19T13:19:01;13.32;;;9.13;;
56399;SDS011;42298;53.638;9.876;2022-08-19T13:21:29;15.20;;;9.90;;
56399;SDS011;42298;53.638;9.876;2022-08-19T13:23:55;14.68;;;10.27;;
56399;SDS011;42298;53.638;9.876;2022-08-19T13:26:21;13.60;;;8.98;;
56399;SDS011;42298;53.638;9.876;2022-08-19T13:28:46;13.07;;;8.90;;
56399;SDS011;42298;53.638;9.876;2022-08-19T13:31:32;14.65;;;10.88;;
56399;SDS011;42298;53.638;9.876;2022-08-19T13:34:18;12.23;;;9.38;;
56399;SDS011;42298;53.638;9.876;2022-08-19T13:36:52;15.30;;;9.43;;
56399;SDS011;42298;53.638;9.876;2022-08-19T13:39:18;12.68;;;9.20;;
56399;SDS011;42298;53.638;9.876;2022-08-19T13:41:44;15.43;;;10.55;;
56399;SDS011;42298;53.638;9.876;2022-08-19T13:44:13;14.07;;;10.57;;
56399;SDS011;42298;53.638;9.876;2022-08-19T13:46:39;14.20;;;10.57;;
56399;SDS011;42298;53.638;9.876;2022-08-19T13:49:06;13.70;;;10.50;;
56399;SDS011;42298;53.638;9.876;2022-08-19T13:51:32;15.82;;;11.25;;
56399;SDS011;42298;53.638;9.876;2022-08-19T13:53:57;14.55;;;11.57;;
56399;SDS011;42298;53.638;9.876;2022-08-19T13:56:23;14.90;;;11.48;;
56399;SDS011;42298;53.638;9.876;2022-08-19T13:58:48;17.17;;;12.65;;
56399;SDS011;42298;53.638;9.876;2022-08-19T14:01:18;17.02;;;13.82;;
56399;SDS011;42298;53.638;9.876;2022-08-19T14:03:45;17.85;;;12.88;;
56399;SDS011;42298;53.638;9.876;2022-08-19T14:06:10;15.73;;;12.00;;
56399;SDS011;42298;53.638;9.876;2022-08-19T14:08:35;17.27;;;13.07;;
56399;SDS011;42298;53.638;9.876;2022-08-19T14:11:04;15.82;;;11.93;;
56399;SDS011;42298;53.638;9.876;2022-08-19T14:13:30;18.15;;;13.52;;
56399;SDS011;42298;53.638;9.876;2022-08-19T14:15:57;15.82;;;13.00;;
56399;SDS011;42298;53.638;9.876;2022-08-19T14:18:24;15.18;;;11.82;;
56399;SDS011;42298;53.638;9.876;2022-08-19T14:20:50;15.43;;;12.05;;
56399;SDS011;42298;53.638;9.876;2022-08-19T14:23:15;15.18;;;11.50;;
56399;SDS011;42298;53.638;9.876;2022-08-19T14:25:41;17.08;;;11.75;;
56399;SDS011;42298;53.638;9.876;2022-08-19T14:28:06;17.48;;;11.45;;
56399;SDS011;42298;53.638;9.876;2022-08-19T14:30:33;14.68;;;10.63;;
56399;SDS011;42298;53.638;9.876;2022-08-19T14:32:59;14.32;;;10.27;;
56399;SDS011;42298;53.638;9.876;2022-08-19T14:35:26;15.43;;;11.23;;
56399;SDS011;42298;53.638;9.876;2022-08-19T14:37:54;15.35;;;11.50;;
56399;SDS011;42298;53.638;9.876;2022-08-19T14:40:20;16.42;;;11.77;;
56399;SDS011;42298;53.638;9.876;2022-08-19T14:42:51;15.38;;;10.18;;